Time;durP1;ratioP1;P1;durP2;ratioP2;P2;SDS_P1;SDS_P2;PMS_P1;PMS_P2;Temp;Humidity;BMP_temperature;BMP_pressure;BME280_temperature;BME280_humidity;BME280_pressure;Samples;Min_cycle;Max_cycle;Signal;HPM_P1;HPM_P2
2021/09/03 00:00:18;;;;;;;43.33;26.50;;;16.10;99.90;;;;;;6031780;23;20034;-76
2021/09/03 00:02:49;;;;;;;38.20;27.10;;;16.10;99.90;;;;;;6032939;23;20047;-77
2021/09/03 00:05:19;;;;;;;42.17;25.65;;;16.10;99.90;;;;;;6019315;23;20365;-76
2021/09/03 00:07:47;;;;;;;42.97;27.55;;;16.00;99.90;;;;;;6032252;23;20439;-76
2021/09/03 00:10:21;;;;;;;51.88;27.88;;;16.00;99.90;;;;;;6031548;23;20067;-77
2021/09/03 00:12:48;;;;;;;47.38;27.50;;;16.00;99.90;;;;;;6032226;23;20023;-76
2021/09/03 00:15:17;;;;;;;44.90;27.10;;;16.00;99.90;;;;;;6021182;23;20023;-77
2021/09/03 00:17:45;;;;;;;46.13;27.52;;;16.00;99.90;;;;;;6032463;23;20027;-76
2021/09/03 00:20:14;;;;;;;47.47;27.45;;;16.00;99.90;;;;;;6031786;23;20074;-76
2021/09/03 00:22:43;;;;;;;51.42;28.80;;;15.90;99.90;;;;;;6032800;23;20020;-77
2021/09/03 00:25:11;;;;;;;46.40;28.77;;;16.00;99.90;;;;;;6019806;23;20023;-77
2021/09/03 00:27:38;;;;;;;49.50;28.75;;;15.90;99.90;;;;;;6032800;23;20027;-76
2021/09/03 00:30:07;;;;;;;47.08;28.27;;;15.90;99.90;;;;;;6032756;23;20050;-76
2021/09/03 00:32:35;;;;;;;46.47;28.88;;;15.90;99.90;;;;;;6056420;23;20030;-76
2021/09/03 00:35:02;;;;;;;55.17;30.27;;;15.90;99.90;;;;;;6033045;23;20016;-76
2021/09/03 00:37:30;;;;;;;45.78;28.92;;;15.90;99.90;;;;;;6031059;23;20023;-76
2021/09/03 00:39:57;;;;;;;48.50;29.65;;;15.90;99.90;;;;;;6032326;23;20023;-76
2021/09/03 00:42:24;;;;;;;46.60;29.45;;;15.90;99.90;;;;;;6019211;23;20142;-76
2021/09/03 00:44:52;;;;;;;48.97;29.67;;;15.80;99.90;;;;;;6032458;23;20016;-76
2021/09/03 00:47:19;;;;;;;51.00;30.02;;;15.80;99.90;;;;;;6031736;23;20019;-76
2021/09/03 00:49:46;;;;;;;48.50;29.55;;;15.80;99.90;;;;;;6032626;23;20019;-76
2021/09/03 00:52:14;;;;;;;46.90;29.73;;;15.80;99.90;;;;;;6031604;23;20019;-76
2021/09/03 00:54:41;;;;;;;53.03;29.42;;;15.80;99.90;;;;;;6032684;23;20023;-76
2021/09/03 00:57:09;;;;;;;48.97;29.38;;;15.80;99.90;;;;;;6031382;23;20024;-76
2021/09/03 00:59:36;;;;;;;51.75;29.65;;;15.80;99.90;;;;;;6032091;23;20023;-77
2021/09/03 01:02:04;;;;;;;49.45;28.92;;;15.80;99.90;;;;;;6021697;23;20083;-76
2021/09/03 01:04:31;;;;;;;47.23;28.50;;;15.80;99.90;;;;;;6031333;23;20368;-76
2021/09/03 01:06:58;;;;;;;48.33;29.17;;;15.80;99.90;;;;;;6032551;23;20039;-76
2021/09/03 01:09:25;;;;;;;52.53;29.48;;;15.80;99.90;;;;;;6031450;23;20444;-76
2021/09/03 01:11:53;;;;;;;55.33;29.55;;;15.80;99.90;;;;;;6032637;23;20452;-77
2021/09/03 01:14:23;;;;;;;46.15;27.95;;;15.80;99.90;;;;;;6031064;23;20104;-76
2021/09/03 01:16:50;;;;;;;48.95;28.13;;;15.70;99.90;;;;;;6020689;23;20302;-77
2021/09/03 01:19:17;;;;;;;49.80;29.00;;;15.80;99.90;;;;;;6031470;23;20043;-76
2021/09/03 01:21:52;;;;;;;52.90;28.38;;;15.70;99.90;;;;;;6032078;23;20031;-76
2021/09/03 01:24:20;;;;;;;46.97;29.92;;;15.70;99.90;;;;;;6031487;23;20310;-76
2021/09/03 01:26:47;;;;;;;52.78;28.52;;;15.70;99.90;;;;;;6032531;23;20027;-76
2021/09/03 01:29:14;;;;;;;47.22;28.27;;;15.70;99.90;;;;;;6031251;23;20466;-76
2021/09/03 01:31:41;;;;;;;44.95;28.77;;;15.70;99.90;;;;;;6023876;23;20097;-76
2021/09/03 01:34:09;;;;;;;52.13;29.95;;;15.70;99.90;;;;;;6030875;23;20026;-76
2021/09/03 01:36:36;;;;;;;46.22;28.02;;;15.70;99.90;;;;;;6020908;23;20023;-76
2021/09/03 01:39:04;;;;;;;45.83;27.70;;;15.70;99.90;;;;;;6031853;23;20023;-76
2021/09/03 01:41:32;;;;;;;48.63;28.77;;;15.70;99.90;;;;;;6030694;23;20039;-76
2021/09/03 01:43:59;;;;;;;48.53;28.40;;;15.70;99.90;;;;;;6033459;23;20272;-76
2021/09/03 01:46:26;;;;;;;44.15;27.60;;;15.70;99.90;;;;;;6022035;23;20023;-76
2021/09/03 01:48:53;;;;;;;51.92;28.40;;;15.70;99.90;;;;;;6033234;23;20066;-76
2021/09/03 01:51:20;;;;;;;47.67;27.85;;;15.70;99.90;;;;;;6022400;23;20023;-76
2021/09/03 01:53:49;;;;;;;45.88;26.05;;;15.70;99.90;;;;;;6033239;23;20030;-77
2021/09/03 01:56:16;;;;;;;45.42;27.50;;;15.70;99.90;;;;;;6032161;23;20464;-76
2021/09/03 01:58:44;;;;;;;43.67;25.83;;;15.70;99.90;;;;;;6033448;23;20028;-76
2021/09/03 02:01:11;;;;;;;51.35;27.83;;;15.70;99.90;;;;;;6021952;23;20136;-76
2021/09/03 02:03:38;;;;;;;44.22;26.23;;;15.60;99.90;;;;;;6033005;23;20102;-77
2021/09/03 02:06:05;;;;;;;45.80;26.80;;;15.60;99.90;;;;;;6032646;23;20019;-76
2021/09/03 02:08:32;;;;;;;46.08;26.88;;;15.60;99.90;;;;;;6033065;23;20026;-76
2021/09/03 02:10:59;;;;;;;55.25;27.88;;;15.60;99.90;;;;;;6032876;23;20360;-76
2021/09/03 02:13:27;;;;;;;47.65;26.65;;;15.60;99.90;;;;;;6032974;23;20333;-76
2021/09/03 02:15:54;;;;;;;45.35;27.40;;;15.60;99.90;;;;;;6033190;23;20047;-76
2021/09/03 02:18:21;;;;;;;49.72;28.27;;;15.60;99.90;;;;;;6032207;23;20086;-76
2021/09/03 02:20:50;;;;;;;46.97;27.25;;;15.60;99.90;;;;;;6032878;23;20039;-76
2021/09/03 02:23:17;;;;;;;43.78;27.35;;;15.60;99.90;;;;;;6032086;23;20024;-76
2021/09/03 02:25:48;;;;;;;48.42;27.05;;;15.60;99.90;;;;;;6033706;23;20107;-76
2021/09/03 02:28:16;;;;;;;46.92;27.88;;;15.60;99.90;;;;;;6032356;23;20098;-76
2021/09/03 02:30:44;;;;;;;47.80;26.38;;;15.60;99.90;;;;;;6032902;23;20023;-76
2021/09/03 02:33:11;;;;;;;49.55;27.05;;;15.60;99.90;;;;;;6032496;23;20020;-77
2021/09/03 02:35:39;;;;;;;47.58;27.05;;;15.60;99.90;;;;;;6032680;23;20023;-76
2021/09/03 02:38:06;;;;;;;45.50;26.60;;;15.60;99.90;;;;;;6032454;23;20019;-76
2021/09/03 02:40:33;;;;;;;45.88;26.48;;;15.60;99.90;;;;;;6032551;23;20020;-76
2021/09/03 02:43:01;;;;;;;40.83;26.70;;;15.60;99.90;;;;;;6032978;23;20102;-76
2021/09/03 02:45:28;;;;;;;52.70;28.33;;;15.50;99.90;;;;;;6019733;23;20444;-76
2021/09/03 02:47:55;;;;;;;48.63;27.38;;;15.50;99.90;;;;;;6033315;23;20019;-76
2021/09/03 02:50:22;;;;;;;48.28;27.30;;;15.50;99.90;;;;;;6032013;23;20365;-76
2021/09/03 02:52:52;;;;;;;50.05;28.63;;;15.50;99.90;;;;;;6033291;23;20029;-76
2021/09/03 02:55:19;;;;;;;44.88;26.52;;;15.50;99.90;;;;;;6032724;23;20023;-76
2021/09/03 02:57:46;;;;;;;50.05;28.00;;;15.50;99.90;;;;;;6032572;23;20094;-76
2021/09/03 03:00:14;;;;;;;58.17;28.00;;;15.50;99.90;;;;;;6032144;23;20035;-75
2021/09/03 03:02:44;;;;;;;52.40;28.98;;;15.50;99.90;;;;;;6032877;23;20340;-75
2021/09/03 03:05:12;;;;;;;54.22;27.45;;;15.50;99.90;;;;;;6032304;23;20384;-75
2021/09/03 03:07:39;;;;;;;54.35;29.67;;;15.50;99.90;;;;;;6033377;23;20366;-76
2021/09/03 03:10:07;;;;;;;43.78;27.55;;;15.50;99.90;;;;;;6032233;23;20484;-75
2021/09/03 03:12:34;;;;;;;49.55;29.08;;;15.50;99.90;;;;;;6033262;23;20024;-74
2021/09/03 03:15:02;;;;;;;48.30;27.92;;;15.40;99.90;;;;;;6033167;23;20023;-75
2021/09/03 03:17:29;;;;;;;51.47;28.50;;;15.40;99.90;;;;;;6031946;23;20051;-75
2021/09/03 03:19:56;;;;;;;45.97;28.02;;;15.40;99.90;;;;;;6032488;23;20031;-75
2021/09/03 03:22:23;;;;;;;53.38;30.00;;;15.40;99.90;;;;;;6031976;23;20039;-77
2021/09/03 03:24:50;;;;;;;47.35;29.05;;;15.40;99.90;;;;;;6033090;23;20023;-75
2021/09/03 03:27:17;;;;;;;48.00;29.60;;;15.40;99.90;;;;;;6032323;23;20051;-75
2021/09/03 03:29:45;;;;;;;56.50;28.73;;;15.40;99.90;;;;;;6032750;23;20448;-77
2021/09/03 03:35:59;;;;;;;51.22;28.65;;;15.40;99.90;;;;;;6033154;23;20038;-75
2021/09/03 03:38:26;;;;;;;58.72;30.42;;;15.30;99.90;;;;;;6030993;23;20341;-74
2021/09/03 03:40:53;;;;;;;49.80;29.20;;;15.30;99.90;;;;;;6033077;23;20381;-75
2021/09/03 03:43:21;;;;;;;54.45;30.33;;;15.30;99.90;;;;;;6032259;23;20033;-75
2021/09/03 03:45:48;;;;;;;59.58;29.90;;;15.30;99.90;;;;;;6032958;23;20050;-75
2021/09/03 03:48:15;;;;;;;52.90;30.02;;;15.30;99.90;;;;;;6032070;23;20027;-74
2021/09/03 03:50:42;;;;;;;53.08;29.98;;;15.30;99.90;;;;;;6032784;23;20352;-77
2021/09/03 03:53:11;;;;;;;50.10;30.10;;;15.30;99.90;;;;;;6031477;23;20015;-76
2021/09/03 03:55:40;;;;;;;55.92;30.52;;;15.30;99.90;;;;;;6032706;23;20433;-75
2021/09/03 03:58:07;;;;;;;58.88;30.15;;;15.30;99.90;;;;;;6031893;23;20019;-75
2021/09/03 04:00:34;;;;;;;51.45;30.00;;;15.30;99.90;;;;;;6032461;23;20340;-77
2021/09/03 04:03:02;;;;;;;53.25;31.08;;;15.30;99.90;;;;;;6032400;23;20074;-75
2021/09/03 04:05:29;;;;;;;46.92;29.20;;;15.30;99.90;;;;;;6031783;23;20027;-76
2021/09/03 04:07:56;;;;;;;56.80;31.27;;;15.30;99.90;;;;;;6032813;23;20019;-75
2021/09/03 04:10:23;;;;;;;48.88;28.33;;;15.30;99.90;;;;;;6032288;23;20024;-75
2021/09/03 04:12:50;;;;;;;56.60;30.40;;;15.30;99.90;;;;;;6032991;23;20028;-75
2021/09/03 04:15:18;;;;;;;53.08;31.10;;;15.30;99.90;;;;;;6031624;23;20356;-75
2021/09/03 04:17:45;;;;;;;55.53;31.40;;;15.30;99.90;;;;;;6033021;23;20424;-75
2021/09/03 04:20:12;;;;;;;52.08;30.40;;;15.30;99.90;;;;;;6031830;23;20034;-75
2021/09/03 04:22:39;;;;;;;57.30;32.05;;;15.30;99.90;;;;;;6032793;23;20043;-75
2021/09/03 04:25:07;;;;;;;50.53;30.02;;;15.30;99.90;;;;;;6032091;23;20027;-75
2021/09/03 04:27:36;;;;;;;54.30;30.98;;;15.30;99.90;;;;;;6032709;23;20455;-74
2021/09/03 04:30:05;;;;;;;56.95;31.42;;;15.20;99.90;;;;;;6032811;23;20030;-75
2021/09/03 04:32:32;;;;;;;57.60;31.33;;;15.20;99.90;;;;;;6032101;23;20027;-75
2021/09/03 04:34:59;;;;;;;55.42;31.50;;;15.20;99.90;;;;;;6032847;23;20023;-74
2021/09/03 04:37:27;;;;;;;53.22;30.85;;;15.20;99.90;;;;;;6022743;23;24544;-73
2021/09/03 04:39:54;;;;;;;50.85;30.85;;;15.20;99.90;;;;;;6033063;23;20024;-74
2021/09/03 04:42:24;;;;;;;52.25;32.08;;;15.20;99.90;;;;;;6031672;23;20440;-77
2021/09/03 04:44:51;;;;;;;53.15;30.48;;;15.30;99.90;;;;;;6032954;23;20373;-75
2021/09/03 04:47:19;;;;;;;57.45;31.67;;;15.20;99.90;;;;;;6021680;23;20514;-75
2021/09/03 04:49:46;;;;;;;63.65;33.47;;;15.20;99.90;;;;;;6033127;23;20456;-75
2021/09/03 04:52:13;;;;;;;57.03;32.70;;;15.20;99.90;;;;;;6019262;23;20023;-76
2021/09/03 04:54:40;;;;;;;58.47;33.47;;;15.20;99.90;;;;;;6032985;23;20050;-76
2021/09/03 04:57:07;;;;;;;52.40;30.77;;;15.20;99.90;;;;;;6018745;23;20045;-76
2021/09/03 04:59:34;;;;;;;53.45;31.73;;;15.20;99.90;;;;;;6032869;23;20306;-76
2021/09/03 05:02:01;;;;;;;56.50;32.78;;;15.20;99.90;;;;;;6032643;23;20034;-76
2021/09/03 05:04:32;;;;;;;52.55;31.20;;;15.20;99.90;;;;;;6031502;23;20034;-76
2021/09/03 05:07:01;;;;;;;59.03;33.08;;;15.20;99.90;;;;;;6031909;23;20102;-76
2021/09/03 05:09:28;;;;;;;56.15;32.40;;;15.20;99.90;;;;;;6030727;23;20336;-76
2021/09/03 05:11:58;;;;;;;55.63;33.30;;;15.20;99.90;;;;;;6032771;23;20387;-76
2021/09/03 05:14:25;;;;;;;57.42;31.92;;;15.20;99.90;;;;;;6031940;23;20031;-75
2021/09/03 05:16:57;;;;;;;56.97;32.13;;;15.20;99.90;;;;;;6032322;23;20441;-76
2021/09/03 05:19:25;;;;;;;62.55;32.25;;;15.20;99.90;;;;;;6032438;23;20031;-76
2021/09/03 05:21:55;;;;;;;64.20;32.83;;;15.10;99.90;;;;;;6024696;23;20109;-76
2021/09/03 05:24:32;;;;;;;55.67;33.05;;;15.20;99.90;;;;;;6032710;23;20034;-76
2021/09/03 05:27:06;;;;;;;50.58;31.77;;;15.10;99.90;;;;;;6034009;23;20035;-76
2021/09/03 05:29:41;;;;;;;56.50;31.75;;;15.10;99.90;;;;;;5996974;23;20023;-78
2021/09/03 05:32:22;;;;;;;56.63;31.17;;;15.10;99.90;;;;;;6026981;23;20027;-76
2021/09/03 05:34:53;;;;;;;55.60;32.28;;;15.10;99.90;;;;;;6024311;23;20019;-77
2021/09/03 05:37:22;;;;;;;57.60;32.17;;;15.10;99.90;;;;;;6028758;23;20015;-77
2021/09/03 05:40:02;;;;;;;55.55;31.40;;;15.10;99.90;;;;;;6030584;23;20047;-77
2021/09/03 05:42:33;;;;;;;60.00;33.60;;;15.10;99.90;;;;;;6015744;23;20031;-77
2021/09/03 05:45:09;;;;;;;52.40;32.08;;;15.10;99.90;;;;;;6030230;23;20471;-76
2021/09/03 05:47:44;;;;;;;55.42;33.72;;;15.20;99.90;;;;;;6022727;23;20452;-77
2021/09/03 05:50:12;;;;;;;60.20;33.25;;;15.10;99.90;;;;;;6029466;23;20091;-77
2021/09/03 05:52:40;;;;;;;51.55;32.50;;;15.10;99.90;;;;;;6030833;23;20106;-76
2021/09/03 05:55:08;;;;;;;57.60;33.67;;;15.10;99.90;;;;;;6029617;23;20441;-77
2021/09/03 05:57:59;;;;;;;56.72;32.88;;;15.10;99.90;;;;;;6030657;23;20039;-78
2021/09/03 06:00:43;;;;;;;53.28;32.90;;;15.20;99.90;;;;;;6031765;23;20049;-77
2021/09/03 06:03:10;;;;;;;57.90;34.10;;;15.10;99.90;;;;;;6065729;23;20475;-77
2021/09/03 06:05:37;;;;;;;55.05;32.88;;;15.10;99.90;;;;;;6067764;23;20018;-76
2021/09/03 06:08:07;;;;;;;57.05;32.60;;;15.20;99.90;;;;;;6050546;23;20062;-77
2021/09/03 06:10:37;;;;;;;53.33;32.72;;;15.20;99.90;;;;;;6067263;23;20140;-77
2021/09/03 06:13:07;;;;;;;56.95;32.42;;;15.20;99.90;;;;;;6052113;23;20097;-77
2021/09/03 06:15:35;;;;;;;65.80;34.25;;;15.20;99.90;;;;;;6066436;23;20018;-77
2021/09/03 06:18:04;;;;;;;54.95;33.97;;;15.30;99.90;;;;;;6054350;23;20105;-76
2021/09/03 06:20:31;;;;;;;54.55;31.35;;;15.30;99.90;;;;;;6016694;23;20018;-77
2021/09/03 06:28:02;;;;;;;;;;;;;;;;;;;;;
2021/09/03 06:43:51;;;;;;;51.30;31.17;;;15.50;99.90;;;;;;6092585;22;1339937;-77
2021/09/03 06:46:28;;;;;;;52.45;31.05;;;15.60;99.90;;;;;;6172619;23;20151;-77
2021/09/03 06:49:22;;;;;;;55.17;31.52;;;15.70;99.90;;;;;;6184820;23;20027;-76
2021/09/03 06:51:58;;;;;;;52.33;30.40;;;15.80;99.90;;;;;;6205942;23;20020;-76
2021/09/03 06:54:49;;;;;;;49.10;28.42;;;15.80;99.90;;;;;;6168106;23;20066;-76
2021/09/03 06:57:39;;;;;;;45.20;29.17;;;15.90;99.90;;;;;;6203892;23;20020;-76
2021/09/03 07:00:37;;;;;;;46.22;29.42;;;16.00;99.90;;;;;;6204342;22;20107;-77
2021/09/03 07:03:20;;;;;;;42.03;27.98;;;16.10;99.90;;;;;;6180664;23;20114;-76
2021/09/03 07:06:06;;;;;;;48.85;29.65;;;16.10;99.90;;;;;;6199216;23;20514;-76
2021/09/03 07:08:50;;;;;;;42.17;27.98;;;16.20;99.90;;;;;;6167977;23;20379;-76
2021/09/03 07:11:35;;;;;;;40.30;28.05;;;16.30;99.90;;;;;;6154004;23;20029;-77
2021/09/03 07:14:25;;;;;;;47.42;27.40;;;16.40;99.90;;;;;;6196490;23;20096;-76
2021/09/03 07:17:06;;;;;;;46.30;27.88;;;16.40;99.90;;;;;;6163885;23;20090;-76
2021/09/03 07:19:40;;;;;;;43.47;25.92;;;16.60;99.90;;;;;;6193720;23;20028;-76
2021/09/03 07:22:50;;;;;;;;;;;;;;;;;;;;;
2021/09/03 07:25:24;;;;;;;45.25;27.50;;;16.70;99.90;;;;;;6168917;23;20051;-75
2021/09/03 07:28:00;;;;;;;42.95;26.48;;;16.80;99.90;;;;;;6173529;23;20108;-76
2021/09/03 07:30:43;;;;;;;41.78;26.58;;;16.90;99.90;;;;;;6197185;22;20030;-76
2021/09/03 07:33:45;;;;;;;;;;;;;;;;;;;;;
2021/09/03 07:36:28;;;;;;;38.30;26.38;;;16.90;99.90;;;;;;6167854;23;20066;-76
2021/09/03 07:39:48;;;;;;;;;;;;;;;;;;;;;
2021/09/03 07:42:25;;;;;;;35.28;24.95;;;16.90;99.90;;;;;;6172015;23;20020;-76
2021/09/03 07:45:54;;;;;;;;;;;;;;;;;;;;;
2021/09/03 08:09:52;;;;;;;36.10;19.63;;;17.70;99.90;;;;;;5548043;22;15124913;-75
2021/09/03 08:12:25;;;;;;;28.13;20.02;;;18.60;99.90;;;;;;6169779;23;20021;-76
2021/09/03 08:18:13;;;;;;;31.67;17.42;;;18.90;99.90;;;;;;6041852;23;20094;-77
2021/09/03 08:20:45;;;;;;;24.65;18.42;;;19.10;99.90;;;;;;5991924;23;20027;-75
2021/09/03 08:23:13;;;;;;;21.42;16.60;;;19.20;99.90;;;;;;5987193;23;20034;-75
2021/09/03 08:25:57;;;;;;;;;;;;;;;;;;;;;
2021/09/03 08:28:46;;;;;;;21.70;16.65;;;19.50;99.90;;;;;;6005553;23;20023;-75
2021/09/03 08:31:23;;;;;;;21.90;16.25;;;19.60;99.90;;;;;;6007028;23;20022;-76
2021/09/03 08:34:26;;;;;;;23.08;15.40;;;19.80;99.90;;;;;;5977425;23;20022;-77
2021/09/03 08:36:53;;;;;;;20.27;15.43;;;20.00;99.90;;;;;;5976640;23;20452;-75
2021/09/03 08:39:20;;;;;;;27.02;15.60;;;20.10;99.90;;;;;;5999758;23;20024;-75
2021/09/03 08:42:13;;;;;;;37.65;15.27;;;20.20;99.90;;;;;;6000452;23;20108;-78
2021/09/03 08:45:02;;;;;;;;;;;;;;;;;;;;;
2021/09/03 08:48:27;;;;;;;18.25;14.57;;;20.50;99.90;;;;;;5899250;23;20019;-77
2021/09/03 08:54:25;;;;;;;22.67;14.50;;;20.80;99.90;;;;;;5864839;23;20103;-76
2021/09/03 09:01:23;;;;;;;18.20;13.27;;;21.10;99.90;;;;;;5929582;24;20099;-76
2021/09/03 09:04:17;;;;;;;19.58;14.02;;;21.30;99.90;;;;;;5944274;24;20025;-76
2021/09/03 09:07:02;;;;;;;19.23;13.07;;;21.40;99.90;;;;;;5918753;24;20025;-75
2021/09/03 09:09:47;;;;;;;19.48;13.35;;;21.50;99.90;;;;;;5906779;24;20095;-75
2021/09/03 09:12:18;;;;;;;20.73;12.95;;;21.60;99.90;;;;;;5944159;24;20028;-75
2021/09/03 09:15:04;;;;;;;19.23;13.43;;;21.70;99.90;;;;;;6003895;23;20374;-77
2021/09/03 09:18:07;;;;;;;18.83;11.80;;;21.80;99.90;;;;;;5864187;23;20042;-77
2021/09/03 09:21:16;;;;;;;19.58;13.25;;;21.80;99.90;;;;;;5975419;23;20318;-77
2021/09/03 09:24:29;;;;;;;15.20;12.13;;;22.00;99.90;;;;;;5860335;24;20030;-77
2021/09/03 09:42:59;;;;;;;17.35;10.93;;;22.60;99.90;;;;;;5787784;24;20075;-76
2021/09/03 09:45:31;;;;;;;27.73;11.65;;;22.70;99.90;;;;;;5787423;24;20080;-75
2021/09/03 09:48:07;;;;;;;28.75;11.73;;;22.80;99.90;;;;;;5804749;24;20029;-77
2021/09/03 09:50:44;;;;;;;12.27;10.07;;;23.00;99.90;;;;;;5782857;24;20045;-76
2021/09/03 19:28:01;;;;;;;23.55;15.07;;;21.60;99.90;;;;;;5983212;23;20084;-77
2021/09/03 19:31:27;;;;;;;19.27;14.90;;;21.30;99.90;;;;;;5857221;23;20035;-77
2021/09/03 19:34:34;;;;;;;19.42;16.48;;;21.10;99.90;;;;;;5932287;23;20019;-77
2021/09/03 19:37:34;;;;;;;20.23;16.27;;;20.90;99.90;;;;;;5827266;24;20922;-76
2021/09/03 19:40:27;;;;;;;21.23;17.58;;;20.60;99.90;;;;;;5858429;24;20031;-77
2021/09/03 19:43:27;;;;;;;;;;;;;;;;;;;;;
2021/09/03 19:49:24;;;;;;;21.42;16.85;;;20.30;99.90;;;;;;5810093;24;20023;-77
2021/09/03 19:52:21;;;;;;;;;;;;;;;;;;;;;
2021/09/03 19:55:12;;;;;;;21.60;16.65;;;20.00;99.90;;;;;;5815971;24;20101;-77
2021/09/03 19:57:56;;;;;;;20.08;16.92;;;19.90;99.90;;;;;;5746393;24;20039;-77
2021/09/03 20:00:39;;;;;;;22.98;17.42;;;19.80;99.90;;;;;;5785963;24;20034;-77
2021/09/03 20:03:12;;;;;;;21.95;17.73;;;19.70;99.90;;;;;;5814313;24;20558;-77
2021/09/03 20:13:35;;;;;;;19.75;15.82;;;19.50;99.90;;;;;;5632295;25;20051;-76
2021/09/03 20:16:08;;;;;;;22.48;16.95;;;19.50;99.90;;;;;;5655652;25;20021;-77
2021/09/03 20:18:35;;;;;;;19.00;17.00;;;19.40;99.90;;;;;;5679657;25;20034;-77
2021/09/03 20:21:06;;;;;;;19.98;16.48;;;19.40;99.90;;;;;;5648556;25;20025;-77
2021/09/03 20:23:32;;;;;;;23.88;16.20;;;19.30;99.90;;;;;;5645725;25;20548;-77
2021/09/03 20:26:04;;;;;;;18.27;16.38;;;19.30;99.90;;;;;;5676802;25;20052;-77
2021/09/03 20:28:51;;;;;;;21.92;16.88;;;19.30;99.90;;;;;;5744392;24;20435;-76
2021/09/03 20:31:20;;;;;;;20.70;16.25;;;19.30;99.90;;;;;;5745028;24;20019;-76
2021/09/03 20:33:49;;;;;;;22.73;16.73;;;19.30;99.90;;;;;;5785926;24;20034;-76
2021/09/03 20:36:16;;;;;;;21.20;16.45;;;19.20;99.90;;;;;;5772005;24;20035;-76
2021/09/03 20:38:48;;;;;;;19.50;16.20;;;19.20;99.90;;;;;;5786086;24;20133;-75
2021/09/03 20:41:16;;;;;;;22.05;16.05;;;19.20;99.90;;;;;;5783956;24;20031;-75
2021/09/03 20:43:50;;;;;;;18.15;16.23;;;19.20;99.90;;;;;;5775848;24;20555;-75
2021/09/03 20:46:20;;;;;;;18.27;16.27;;;19.20;99.90;;;;;;5907235;23;20015;-76
2021/09/03 20:48:47;;;;;;;20.15;15.68;;;19.10;99.90;;;;;;6001781;23;20019;-75
2021/09/03 20:51:16;;;;;;;17.55;15.75;;;19.10;99.90;;;;;;6094241;23;20424;-75
2021/09/03 20:53:44;;;;;;;17.85;15.63;;;19.00;99.90;;;;;;6096016;23;20025;-75
2021/09/03 20:56:12;;;;;;;;;;;19.00;99.90;;;;;;6119167;23;20030;-75
2021/09/03 20:58:39;;;;;;;18.27;15.48;;;19.00;99.90;;;;;;6095311;23;19940;-76
2021/09/03 21:01:11;;;;;;;17.15;15.00;;;19.00;99.90;;;;;;6118301;23;20045;-75
2021/09/03 21:03:40;;;;;;;16.52;14.57;;;18.90;99.90;;;;;;6119842;23;20021;-75
2021/09/03 21:06:07;;;;;;;16.05;14.27;;;18.90;99.90;;;;;;6107955;23;20033;-75
2021/09/03 21:08:43;;;;;;;17.48;13.68;;;18.90;99.90;;;;;;6121593;23;20018;-76
2021/09/03 21:11:10;;;;;;;15.63;13.95;;;18.90;99.90;;;;;;6120187;23;20030;-76
2021/09/03 21:13:37;;;;;;;20.23;14.50;;;18.90;99.90;;;;;;6121334;23;20056;-76
2021/09/03 21:16:05;;;;;;;17.42;14.80;;;18.90;99.90;;;;;;6107167;23;20025;-76
2021/09/03 21:18:32;;;;;;;16.23;13.75;;;18.90;99.90;;;;;;6121028;23;20100;-76
2021/09/03 21:21:02;;;;;;;16.23;13.85;;;18.90;99.90;;;;;;6121056;23;20071;-76
2021/09/03 21:23:30;;;;;;;16.40;13.13;;;18.90;99.90;;;;;;6120062;23;20447;-77
2021/09/03 21:25:58;;;;;;;18.48;14.15;;;18.90;99.90;;;;;;6120420;23;20053;-75
2021/09/03 21:28:29;;;;;;;17.85;13.70;;;18.90;99.90;;;;;;6119790;23;20038;-76
2021/09/03 21:30:58;;;;;;;16.48;13.77;;;18.90;99.90;;;;;;6093159;23;20022;-75
2021/09/03 21:33:26;;;;;;;15.25;13.32;;;18.90;99.90;;;;;;6081637;23;20030;-75
2021/09/03 21:35:53;;;;;;;19.67;13.77;;;18.90;99.90;;;;;;6085452;23;20081;-75
2021/09/03 21:38:22;;;;;;;16.90;13.98;;;18.80;99.90;;;;;;6119993;23;20057;-75
2021/09/03 21:40:49;;;;;;;19.75;13.82;;;18.80;99.90;;;;;;6121035;23;20022;-75
2021/09/03 21:43:16;;;;;;;17.77;13.40;;;18.80;99.90;;;;;;6119869;23;20022;-75
2021/09/03 21:45:43;;;;;;;15.30;13.25;;;18.90;99.90;;;;;;6109187;23;20030;-76
2021/09/03 21:48:10;;;;;;;17.48;14.23;;;18.80;99.90;;;;;;6120202;23;20024;-76
2021/09/03 21:50:38;;;;;;;18.00;14.55;;;18.80;99.90;;;;;;6121056;23;20475;-75
2021/09/03 21:53:05;;;;;;;15.70;14.18;;;18.80;99.90;;;;;;6119404;23;20022;-76
2021/09/03 21:55:32;;;;;;;16.25;13.82;;;18.70;99.90;;;;;;6105250;23;20044;-76
2021/09/03 21:57:59;;;;;;;14.75;13.18;;;18.70;99.90;;;;;;6090914;23;20022;-76
2021/09/03 22:00:26;;;;;;;15.45;12.90;;;18.70;99.90;;;;;;6117806;23;20037;-75
2021/09/03 22:02:53;;;;;;;15.73;13.30;;;18.80;99.90;;;;;;6120822;23;20025;-75
2021/09/03 22:05:22;;;;;;;15.50;13.55;;;18.80;99.90;;;;;;6118351;23;20029;-76
2021/09/03 22:07:52;;;;;;;14.65;12.85;;;18.80;99.90;;;;;;6104959;23;20335;-75
2021/09/03 22:10:19;;;;;;;16.17;13.07;;;18.80;99.90;;;;;;6102373;23;20463;-75
2021/09/03 22:15:56;;;;;;;17.17;12.90;;;18.80;99.90;;;;;;6112693;23;20084;-74
2021/09/03 22:18:28;;;;;;;14.07;12.15;;;18.80;99.90;;;;;;6082583;23;20332;-75
2021/09/03 22:21:16;;;;;;;13.35;10.95;;;18.90;99.90;;;;;;6098110;23;20053;-76
2021/09/03 22:24:06;;;;;;;15.38;12.35;;;18.90;99.90;;;;;;6058535;23;20076;-75
2021/09/03 22:26:54;;;;;;;16.55;11.95;;;18.90;99.90;;;;;;6111608;23;20433;-75
2021/09/03 22:29:23;;;;;;;15.48;12.48;;;18.90;99.90;;;;;;6114181;23;20060;-75
2021/09/03 22:31:55;;;;;;;15.40;11.98;;;18.90;99.90;;;;;;6113627;23;20064;-75
2021/09/03 22:34:22;;;;;;;14.68;12.27;;;18.90;99.90;;;;;;6123415;23;20021;-75
2021/09/03 22:36:49;;;;;;;14.15;11.85;;;18.90;99.90;;;;;;6114266;23;20482;-75
2021/09/03 22:39:16;;;;;;;18.23;15.77;;;18.90;99.90;;;;;;6127721;23;20018;-75
2021/09/03 22:41:43;;;;;;;21.65;14.65;;;18.90;99.90;;;;;;6128720;23;20084;-76
2021/09/03 22:44:13;;;;;;;16.90;14.68;;;18.90;99.90;;;;;;6127735;23;20482;-75
2021/09/03 22:46:47;;;;;;;16.77;14.98;;;19.00;99.90;;;;;;6128728;23;20068;-75
2021/09/03 22:49:32;;;;;;;21.10;16.95;;;19.00;99.90;;;;;;6089141;23;20073;-75
2021/09/03 22:52:08;;;;;;;20.25;18.10;;;19.00;99.90;;;;;;6088687;23;20020;-76
2021/09/03 22:54:42;;;;;;;20.55;18.55;;;19.00;99.90;;;;;;6091579;23;20056;-76
2021/09/03 22:57:13;;;;;;;28.42;20.90;;;19.00;99.90;;;;;;6113117;23;20046;-76
2021/09/03 22:59:55;;;;;;;;;;;;;;;;;;;;;
2021/09/03 23:02:55;;;;;;;26.45;20.92;;;19.00;99.90;;;;;;6120145;23;20054;-75
2021/09/03 23:05:28;;;;;;;35.00;21.90;;;19.00;99.90;;;;;;6062150;23;20537;-76
2021/09/03 23:08:16;;;;;;;25.17;22.23;;;19.00;99.90;;;;;;6089432;23;20018;-75
2021/09/03 23:11:04;;;;;;;;;;;;;;;;;;;;;
2021/09/03 23:13:47;;;;;;;30.63;22.42;;;19.10;99.90;;;;;;6115301;23;20030;-76
2021/09/03 23:16:30;;;;;;;29.55;22.60;;;19.10;99.90;;;;;;6036875;23;20049;-76
2021/09/03 23:19:20;;;;;;;29.42;23.73;;;19.10;99.90;;;;;;6021022;23;20518;-76
2021/09/03 23:22:09;;;;;;;34.20;23.83;;;19.10;99.90;;;;;;6063196;23;20022;-76
2021/09/03 23:24:50;;;;;;;31.67;25.00;;;19.00;99.90;;;;;;6085616;23;20028;-75
2021/09/03 23:27:23;;;;;;;32.55;24.38;;;19.00;99.90;;;;;;6086065;23;20022;-76
2021/09/03 23:30:30;;;;;;;33.88;24.58;;;19.00;99.90;;;;;;6048136;23;20022;-76
2021/09/03 23:33:18;;;;;;;30.45;24.10;;;19.00;99.90;;;;;;6059971;23;20470;-76
2021/09/03 23:35:53;;;;;;;26.98;23.02;;;19.10;99.90;;;;;;6048701;23;20092;-75
2021/09/03 23:38:26;;;;;;;30.05;24.45;;;19.10;99.90;;;;;;6044591;23;20042;-75
2021/09/03 23:41:22;;;;;;;31.17;24.33;;;19.10;99.90;;;;;;6057476;23;20022;-76
2021/09/03 23:51:30;;;;;;;27.77;22.75;;;19.10;99.90;;;;;;5796884;24;20104;-76
2021/09/03 23:55:07;;;;;;;31.52;24.05;;;19.10;99.90;;;;;;5892454;23;20035;-76
2021/09/03 23:58:15;;;;;;;33.88;24.15;;;19.20;99.90;;;;;;5768548;24;20034;-76
